KNTU/NTU METAR and TAF weather

Enter ICAO airport designator
Station Type Date Time Source
KNTU METAR 2021/05/14 12:56 UTC NOAA

KNTU 141256Z 35005KT 10SM CLR 18/07 A3026 RMK AO2 SLP251 T01830072


Station Type Date Time Source
KNTU Decoded METAR 2021/05/14 12:56 UTC NOAA

OCEANA, NAVAL AIR STATION, VA, United States (KNTU) 36-49N 076-02W 6M
May 14, 2021 - 08:56 AM EDT / 2021.05.14 1256 UTC
Wind: from the N (350 degrees) at 6 MPH (5 KT):0
Visibility: 10 mile(s):0
Sky conditions: clear
Temperature: 64.9 F (18.3 C)
Dew Point: 45.0 F (7.2 C)
Relative Humidity: 48%
Pressure (altimeter): 30.26 in. Hg (1024 hPa)
ob: KNTU 141256Z 35005KT 10SM CLR 18/07 A3026 RMK AO2 SLP251 T01830072
cycle: 13

Station Type Date Time Source
KNTU TAF 2021/05/14 07:12 UTC NOAA

TAF KNTU 1407/1507 30009KT 9999 FEW100 QNH3020INS
BECMG 1410/1412 33008KT 9999 FEW100 QNH3021INS
BECMG 1416/1418 VRB06KT 9999 SCT100 QNH3019INS T11/1410Z T21/1419Z FN00205

Example: see airport list